createdAt,value
2018-06-19T00:00:33.596Z,86.70
2018-06-19T00:03:01.831Z,86.90
2018-06-19T00:05:30.735Z,86.90
2018-06-19T00:08:00.686Z,87.10
2018-06-19T00:10:29.200Z,87.10
2018-06-19T00:12:57.539Z,87.00
2018-06-19T00:15:27.931Z,86.90
2018-06-19T00:18:02.135Z,87.10
2018-06-19T00:20:30.351Z,87.10
2018-06-19T00:22:58.562Z,87.10
2018-06-19T00:25:27.043Z,87.10
2018-06-19T00:27:55.294Z,86.90
2018-06-19T00:30:23.503Z,87.60
2018-06-19T00:32:51.812Z,87.00
2018-06-19T00:35:20.130Z,87.00
2018-06-19T00:37:48.341Z,87.00
2018-06-19T00:40:16.520Z,87.00
2018-06-19T00:42:44.710Z,87.10
2018-06-19T00:45:12.941Z,87.20
2018-06-19T00:47:41.206Z,87.00
2018-06-19T00:50:09.445Z,87.20
2018-06-19T00:52:37.670Z,87.10
2018-06-19T00:57:34.810Z,87.00
2018-06-19T01:00:03.067Z,87.20
2018-06-19T01:02:31.259Z,87.40
2018-06-19T01:04:59.565Z,87.30
2018-06-19T01:07:27.845Z,87.50
2018-06-19T01:09:56.351Z,87.60
2018-06-19T01:12:24.654Z,87.60
2018-06-19T01:14:52.988Z,87.60
2018-06-19T01:17:21.209Z,87.80
2018-06-19T01:19:49.918Z,87.80
2018-06-19T01:22:18.154Z,87.90
2018-06-19T01:24:47.429Z,87.90
2018-06-19T01:27:15.656Z,88.00
2018-06-19T01:29:43.864Z,87.90
2018-06-19T01:32:12.160Z,88.00
2018-06-19T01:34:40.512Z,88.20
2018-06-19T01:37:08.703Z,88.10
2018-06-19T01:39:37.283Z,88.20
2018-06-19T01:42:05.562Z,88.20
2018-06-19T01:44:33.793Z,88.20
2018-06-19T01:47:02.004Z,88.30
2018-06-19T01:49:30.255Z,88.20
2018-06-19T01:51:58.448Z,88.40
2018-06-19T01:54:27.317Z,88.50
2018-06-19T01:56:55.541Z,88.60
2018-06-19T01:59:23.748Z,89.00
2018-06-19T02:01:51.966Z,88.90
2018-06-19T02:04:20.149Z,89.00
2018-06-19T02:09:16.365Z,89.00
2018-06-19T02:11:44.574Z,89.10
2018-06-19T02:14:12.769Z,89.10
2018-06-19T02:16:41.002Z,89.40
2018-06-19T02:19:09.255Z,89.90
2018-06-19T02:21:37.491Z,89.50
2018-06-19T02:24:05.746Z,89.50
2018-06-19T02:31:30.052Z,90.00
2018-06-19T02:33:58.296Z,90.00
2018-06-19T02:36:26.535Z,90.00
2018-06-19T02:38:54.731Z,90.10
2018-06-19T02:41:22.945Z,90.00
2018-06-19T02:43:51.149Z,90.10
2018-06-19T02:46:21.543Z,90.20
2018-06-19T02:48:49.709Z,90.30
2018-06-19T02:51:17.919Z,90.30
2018-06-19T02:53:46.123Z,90.30
2018-06-19T02:56:15.475Z,90.40
2018-06-19T02:58:43.727Z,90.40
2018-06-19T03:01:12.027Z,90.40
2018-06-19T03:03:40.377Z,90.50
2018-06-19T03:06:08.790Z,90.50
2018-06-19T03:08:37.379Z,90.50
2018-06-19T03:13:33.619Z,90.50
2018-06-19T03:16:01.846Z,90.60
2018-06-19T03:18:30.070Z,90.80
2018-06-19T03:20:58.491Z,90.80
2018-06-19T03:23:26.676Z,90.80
2018-06-19T03:25:54.936Z,90.90
2018-06-19T03:28:23.152Z,90.90
2018-06-19T03:30:51.481Z,91.00
2018-06-19T03:33:19.713Z,91.00
2018-06-19T03:35:48.090Z,91.10
2018-06-19T03:38:16.264Z,91.40
2018-06-19T03:43:13.693Z,91.20
2018-06-19T03:45:42.009Z,91.30
2018-06-19T03:48:10.178Z,91.40
2018-06-19T03:50:38.403Z,91.40
2018-06-19T03:53:06.615Z,91.50
2018-06-19T03:55:34.847Z,91.40
2018-06-19T03:58:03.151Z,91.50
2018-06-19T04:00:31.334Z,91.50
2018-06-19T04:02:59.560Z,91.60
2018-06-19T04:05:27.980Z,91.60
2018-06-19T04:07:56.262Z,91.60
2018-06-19T04:10:24.454Z,91.70
2018-06-19T04:12:53.055Z,91.90
2018-06-19T04:15:21.486Z,91.90
2018-06-19T04:17:49.749Z,92.00
2018-06-19T04:20:17.948Z,92.00
2018-06-19T04:22:46.176Z,91.90
2018-06-19T04:25:14.577Z,91.90
2018-06-19T04:27:42.803Z,92.00
2018-06-19T04:32:39.605Z,92.00
2018-06-19T04:35:08.710Z,91.90
2018-06-19T04:37:37.647Z,92.00
2018-06-19T04:40:05.996Z,92.10
2018-06-19T04:42:34.252Z,92.00
2018-06-19T04:45:02.656Z,92.20
2018-06-19T04:47:30.833Z,92.00
2018-06-19T04:49:59.032Z,92.10
2018-06-19T04:52:27.238Z,92.00
2018-06-19T04:54:55.559Z,92.00
2018-06-19T04:57:23.957Z,92.10
2018-06-19T04:59:52.219Z,92.00
2018-06-19T05:04:48.623Z,92.20
2018-06-19T05:07:16.797Z,92.30
2018-06-19T05:09:44.978Z,92.30
2018-06-19T05:12:13.229Z,92.50
2018-06-19T05:14:41.454Z,92.60
2018-06-19T05:19:37.701Z,93.20
2018-06-19T05:22:06.174Z,93.00
2018-06-19T05:24:34.431Z,93.00
2018-06-19T05:27:02.704Z,93.20
2018-06-19T05:29:30.975Z,93.20
2018-06-19T05:31:59.659Z,93.30
2018-06-19T05:34:27.913Z,93.30
2018-06-19T05:36:56.253Z,93.30
2018-06-19T05:39:24.620Z,93.30
2018-06-19T05:41:52.876Z,93.40
2018-06-19T05:44:21.105Z,93.30
2018-06-19T06:04:14.418Z,93.30
2018-06-19T06:24:00.672Z,93.30
2018-06-19T06:43:48.107Z,93.00
2018-06-19T07:03:33.365Z,92.70
2018-06-19T07:23:13.756Z,92.60
2018-06-19T07:43:02.209Z,92.20
2018-06-19T07:45:30.579Z,92.10
2018-06-19T07:47:59.029Z,92.00
2018-06-19T07:50:27.231Z,92.00
2018-06-19T07:52:55.478Z,91.90
2018-06-19T07:55:23.761Z,91.80
2018-06-19T07:57:52.202Z,91.90
2018-06-19T08:00:20.424Z,91.80
2018-06-19T08:02:48.604Z,91.80
2018-06-19T08:05:16.898Z,91.80
2018-06-19T08:07:45.112Z,91.70
2018-06-19T08:10:13.383Z,92.00
2018-06-19T08:12:41.619Z,91.70
2018-06-19T08:15:09.937Z,91.60
2018-06-19T08:17:38.121Z,91.70
2018-06-19T08:20:06.293Z,91.80
2018-06-19T08:22:34.446Z,91.80
2018-06-19T08:25:02.871Z,92.00
2018-06-19T08:27:31.056Z,91.90
2018-06-19T08:29:59.239Z,92.20
2018-06-19T08:32:27.459Z,92.20
2018-06-19T08:34:55.735Z,92.50
2018-06-19T08:37:24.302Z,92.20
2018-06-19T08:39:52.533Z,92.30
2018-06-19T08:42:20.704Z,92.30
2018-06-19T08:44:49.059Z,92.30
2018-06-19T08:47:17.307Z,92.20
2018-06-19T08:49:45.556Z,92.30
2018-06-19T08:52:13.856Z,92.50
2018-06-19T08:54:42.410Z,92.50
2018-06-19T08:57:10.614Z,92.70
2018-06-19T08:59:38.877Z,93.00
2018-06-19T09:02:07.143Z,92.90
2018-06-19T09:04:35.454Z,93.00
2018-06-19T09:07:03.678Z,93.10
2018-06-19T09:09:31.867Z,93.00
2018-06-19T09:12:00.138Z,93.10
2018-06-19T09:14:28.334Z,92.90
2018-06-19T09:16:56.879Z,92.90
2018-06-19T09:19:25.118Z,92.80
2018-06-19T09:21:53.330Z,92.70
2018-06-19T09:24:21.551Z,92.60
2018-06-19T09:26:49.931Z,92.40
2018-06-19T09:29:18.187Z,92.30
2018-06-19T09:31:46.378Z,92.40
2018-06-19T09:34:14.560Z,92.30
2018-06-19T09:36:42.830Z,91.80
2018-06-19T09:39:12.790Z,91.60
2018-06-19T09:41:41.317Z,91.40
2018-06-19T09:44:09.483Z,91.40
2018-06-19T09:46:37.713Z,91.60
2018-06-19T09:49:05.914Z,91.30
2018-06-19T09:51:34.120Z,91.20
2018-06-19T09:54:02.400Z,91.00
2018-06-19T09:56:31.658Z,90.80
2018-06-19T09:58:59.970Z,90.70
2018-06-19T10:01:28.299Z,90.80
2018-06-19T10:03:56.526Z,90.70
2018-06-19T10:06:24.784Z,90.60
2018-06-19T10:08:52.991Z,90.70
2018-06-19T10:11:21.212Z,90.70
2018-06-19T10:13:49.405Z,90.60
2018-06-19T10:17:20.377Z,90.30
2018-06-19T10:19:48.607Z,90.20
2018-06-19T10:22:16.806Z,90.40
2018-06-19T10:24:45.140Z,90.00
2018-06-19T10:27:13.313Z,89.90
2018-06-19T10:29:41.528Z,89.50
2018-06-19T10:32:09.707Z,89.70
2018-06-19T10:34:37.919Z,89.20
2018-06-19T10:37:06.104Z,89.20
2018-06-19T10:39:34.433Z,89.20
2018-06-19T10:42:02.693Z,89.20
2018-06-19T10:44:30.894Z,88.20
2018-06-19T10:46:59.137Z,87.80
2018-06-19T10:49:27.322Z,88.00
2018-06-19T10:51:55.522Z,88.10
2018-06-19T10:54:23.733Z,88.10
2018-06-19T10:56:53.074Z,87.80
2018-06-19T10:59:21.358Z,87.30
2018-06-19T11:01:49.533Z,87.80
2018-06-19T11:04:17.901Z,87.40
2018-06-19T11:06:46.238Z,87.50
2018-06-19T11:09:14.514Z,87.40
2018-06-19T11:11:42.772Z,87.30
2018-06-19T11:14:10.970Z,87.10
2018-06-19T11:16:39.337Z,87.30
2018-06-19T11:19:07.562Z,86.90
2018-06-19T11:21:35.864Z,86.80
2018-06-19T11:24:04.123Z,86.80
2018-06-19T11:26:32.466Z,86.20
2018-06-19T11:29:00.733Z,86.20
2018-06-19T11:31:28.968Z,86.60
2018-06-19T11:33:57.286Z,86.90
2018-06-19T11:36:25.551Z,86.60
2018-06-19T11:38:53.780Z,86.30
2018-06-19T11:41:21.973Z,86.10
2018-06-19T11:43:50.225Z,85.80
2018-06-19T11:46:18.792Z,85.70
2018-06-19T11:51:15.010Z,85.60
2018-06-19T11:53:43.238Z,85.50
2018-06-19T11:56:11.660Z,84.80
2018-06-19T11:58:39.999Z,85.00
2018-06-19T12:01:08.330Z,85.30
2018-06-19T12:03:36.534Z,86.00
2018-06-19T12:06:04.889Z,85.70
2018-06-19T12:08:33.090Z,85.30
2018-06-19T12:11:01.364Z,84.10
2018-06-19T12:13:29.600Z,83.80
2018-06-19T12:18:25.971Z,84.20
2018-06-19T12:20:54.156Z,83.90
2018-06-19T12:23:22.504Z,84.00
2018-06-19T12:25:50.905Z,83.80
2018-06-19T12:28:19.086Z,82.30
2018-06-19T12:30:47.326Z,81.60
2018-06-19T12:33:15.540Z,81.70
2018-06-19T12:35:43.867Z,81.90
2018-06-19T12:38:12.088Z,82.00
2018-06-19T12:40:40.304Z,81.70
2018-06-19T12:43:08.495Z,81.30
2018-06-19T12:45:36.913Z,81.10
2018-06-19T12:48:05.452Z,81.40
2018-06-19T12:50:49.950Z,81.10
2018-06-19T12:53:29.548Z,80.20
2018-06-19T12:56:14.463Z,81.10
2018-06-19T12:58:43.490Z,80.50
2018-06-19T13:01:11.757Z,81.20
2018-06-19T13:03:51.318Z,81.10
2018-06-19T13:06:29.135Z,80.60
2018-06-19T13:08:57.389Z,79.90
2018-06-19T13:11:26.253Z,80.00
2018-06-19T13:14:05.760Z,81.20
2018-06-19T13:16:47.023Z,81.00
2018-06-19T13:19:27.098Z,81.70
2018-06-19T13:21:55.440Z,82.00
2018-06-19T13:26:52.102Z,81.80
2018-06-19T13:29:46.021Z,81.80
2018-06-19T13:32:14.292Z,82.10
2018-06-19T13:34:42.670Z,82.60
2018-06-19T13:37:11.004Z,82.80
2018-06-19T13:39:40.107Z,82.90
2018-06-19T13:42:22.839Z,82.90
2018-06-19T13:44:56.974Z,83.00
2018-06-19T13:47:25.524Z,82.70
2018-06-19T13:49:53.741Z,82.70
2018-06-19T13:52:22.017Z,82.90
2018-06-19T13:54:50.389Z,83.30
2018-06-19T13:57:32.347Z,83.40
2018-06-19T14:00:02.830Z,83.30
2018-06-19T14:02:31.173Z,83.40
2018-06-19T14:04:59.792Z,83.40
2018-06-19T14:07:29.049Z,83.00
2018-06-19T14:10:08.448Z,82.60
2018-06-19T14:13:13.213Z,82.20
2018-06-19T14:15:50.956Z,81.80
2018-06-19T14:18:20.563Z,82.20
2018-06-19T14:23:16.909Z,82.30
2018-06-19T14:25:45.253Z,81.00
2018-06-19T14:28:13.449Z,80.60
2018-06-19T14:30:41.720Z,80.40
2018-06-19T14:33:10.066Z,80.30
2018-06-19T14:35:38.298Z,80.00
2018-06-19T14:38:06.588Z,78.20
2018-06-19T14:40:34.855Z,78.00
2018-06-19T14:43:03.120Z,78.30
2018-06-19T14:47:59.575Z,77.90
2018-06-19T14:50:27.795Z,77.60
2018-06-19T14:52:56.044Z,77.80
2018-06-19T14:55:24.347Z,78.00
2018-06-19T14:57:52.568Z,78.30
2018-06-19T15:00:20.765Z,78.80
2018-06-19T15:02:49.041Z,79.40
2018-06-19T15:05:18.234Z,80.00
2018-06-19T15:07:51.526Z,79.70
2018-06-19T15:10:19.889Z,80.30
2018-06-19T15:12:48.108Z,80.60
2018-06-19T15:15:16.380Z,81.00
2018-06-19T15:17:44.690Z,81.30
2018-06-19T15:20:12.996Z,81.40
2018-06-19T15:22:41.251Z,81.60
2018-06-19T15:27:38.145Z,81.80
2018-06-19T15:32:35.299Z,81.80
2018-06-19T15:35:03.777Z,82.30
2018-06-19T15:37:31.931Z,82.10
2018-06-19T15:40:00.283Z,82.30
2018-06-19T15:42:28.538Z,82.20
2018-06-19T15:44:56.855Z,82.60
2018-06-19T15:47:25.078Z,82.50
2018-06-19T15:49:53.288Z,82.50
2018-06-19T15:52:21.521Z,82.10
2018-06-19T15:54:50.996Z,81.70
2018-06-19T15:57:19.228Z,81.50
2018-06-19T15:59:47.551Z,81.60
2018-06-19T16:02:15.773Z,81.50
2018-06-19T16:04:44.149Z,81.80
2018-06-19T16:07:12.364Z,81.70
2018-06-19T16:09:40.598Z,81.40
2018-06-19T16:12:08.823Z,81.70
2018-06-19T16:14:37.208Z,82.10
2018-06-19T16:17:05.448Z,82.10
2018-06-19T16:19:33.706Z,81.20
2018-06-19T16:22:01.943Z,81.00
2018-06-19T16:24:30.176Z,80.30
2018-06-19T16:26:58.436Z,80.30
2018-06-19T16:29:26.738Z,80.40
2018-06-19T16:34:23.038Z,79.80
2018-06-19T16:36:51.424Z,79.70
2018-06-19T16:39:19.591Z,80.00
2018-06-19T16:41:47.783Z,80.30
2018-06-19T16:44:16.042Z,80.50
2018-06-19T16:46:44.341Z,80.90
2018-06-19T16:49:12.618Z,81.80
2018-06-19T16:51:40.899Z,82.60
2018-06-19T16:54:09.073Z,83.10
2018-06-19T16:56:37.493Z,83.40
2018-06-19T16:59:05.680Z,83.70
2018-06-19T17:01:33.914Z,84.10
2018-06-19T17:04:02.212Z,83.80
2018-06-19T17:06:30.544Z,83.90
2018-06-19T17:08:58.730Z,83.70
2018-06-19T17:13:55.094Z,83.60
2018-06-19T17:16:23.449Z,83.70
2018-06-19T17:18:51.665Z,83.80
2018-06-19T17:21:19.973Z,83.80
2018-06-19T17:23:48.181Z,83.70
2018-06-19T17:26:16.527Z,83.80
2018-06-19T17:28:44.755Z,83.70
2018-06-19T17:31:12.979Z,84.00
2018-06-19T17:36:09.442Z,83.80
2018-06-19T17:38:37.641Z,83.90
2018-06-19T17:41:06.013Z,83.90
2018-06-19T17:43:34.417Z,83.80
2018-06-19T17:46:02.676Z,84.10
2018-06-19T17:48:31.664Z,84.10
2018-06-19T17:51:00.005Z,84.10
2018-06-19T17:53:28.195Z,84.40
2018-06-19T17:55:57.461Z,85.00
2018-06-19T17:58:25.671Z,85.10
2018-06-19T18:00:53.884Z,85.40
2018-06-19T18:03:22.129Z,85.70
2018-06-19T18:05:51.366Z,85.70
2018-06-19T18:08:19.594Z,85.90
2018-06-19T18:10:47.859Z,86.20
2018-06-19T18:13:16.016Z,86.20
2018-06-19T18:15:44.275Z,86.50
2018-06-19T18:18:12.538Z,86.60
2018-06-19T18:20:40.854Z,87.10
2018-06-19T18:23:09.062Z,86.80
2018-06-19T18:25:37.554Z,87.20
2018-06-19T18:28:05.925Z,87.20
2018-06-19T18:30:34.119Z,87.30
2018-06-19T18:33:02.340Z,87.30
2018-06-19T18:37:58.660Z,86.40
2018-06-19T18:40:26.981Z,86.30
2018-06-19T18:42:55.475Z,85.90
2018-06-19T18:45:25.835Z,86.00
2018-06-19T18:47:54.131Z,85.90
2018-06-19T18:50:23.788Z,85.60
2018-06-19T18:52:52.214Z,85.50
2018-06-19T18:55:20.646Z,85.10
2018-06-19T18:57:49.341Z,84.90
2018-06-19T19:00:19.232Z,85.00
2018-06-19T19:02:47.564Z,84.90
2018-06-19T19:05:15.914Z,85.20
2018-06-19T19:07:44.125Z,85.80
2018-06-19T19:12:45.717Z,86.30
2018-06-19T19:15:19.628Z,86.60
2018-06-19T19:18:55.236Z,87.00
2018-06-19T19:21:23.450Z,87.10
2018-06-19T19:23:51.578Z,87.80
2018-06-19T19:28:28.361Z,88.00
2018-06-19T19:30:56.667Z,88.00
2018-06-19T19:33:24.908Z,88.30
2018-06-19T19:38:26.908Z,88.30
2018-06-19T19:40:55.211Z,88.30
2018-06-19T19:43:23.463Z,88.50
2018-06-19T19:48:25.507Z,88.30
2018-06-19T19:50:54.157Z,88.40
2018-06-19T19:53:22.522Z,88.20
2018-06-19T19:55:57.430Z,88.20
2018-06-19T19:58:31.211Z,88.30
2018-06-19T20:00:59.693Z,88.50
2018-06-19T20:03:28.009Z,88.50
2018-06-19T20:05:56.246Z,88.80
2018-06-19T20:08:25.684Z,88.80
2018-06-19T20:10:53.960Z,88.60
2018-06-19T20:13:22.244Z,88.80
2018-06-19T20:15:50.544Z,88.80
2018-06-19T20:18:18.782Z,88.80
2018-06-19T20:23:15.028Z,88.60
2018-06-19T20:25:43.255Z,88.60
2018-06-19T20:28:11.547Z,88.70
2018-06-19T20:30:39.804Z,88.60
2018-06-19T20:33:07.978Z,88.50
2018-06-19T20:35:37.381Z,88.10
2018-06-19T20:38:05.576Z,87.90
2018-06-19T20:40:33.852Z,87.60
2018-06-19T20:43:02.111Z,87.60
2018-06-19T20:45:30.653Z,87.50
2018-06-19T20:47:58.885Z,87.50
2018-06-19T20:50:27.112Z,87.60
2018-06-19T20:52:55.330Z,87.70
2018-06-19T20:55:23.778Z,87.70
2018-06-19T20:57:52.032Z,87.90
2018-06-19T21:00:20.240Z,88.10
2018-06-19T21:02:48.427Z,88.10
2018-06-19T21:05:17.665Z,88.20
2018-06-19T21:07:45.838Z,88.30
2018-06-19T21:10:14.073Z,88.40
2018-06-19T21:12:42.248Z,88.30
2018-06-19T21:15:10.593Z,88.40
2018-06-19T21:17:39.638Z,88.60
2018-06-19T21:20:07.790Z,88.60
2018-06-19T21:22:35.930Z,88.70
2018-06-19T21:25:04.294Z,88.80
2018-06-19T21:27:32.478Z,88.80
2018-06-19T21:30:00.706Z,89.00
2018-06-19T21:32:29.061Z,89.00
2018-06-19T21:34:57.432Z,89.20
2018-06-19T21:37:25.673Z,89.20
2018-06-19T21:39:53.899Z,89.20
2018-06-19T21:42:22.069Z,89.40
2018-06-19T21:44:50.333Z,89.50
2018-06-19T21:47:18.870Z,89.60
2018-06-19T21:49:47.118Z,89.80
2018-06-19T21:52:15.318Z,90.00
2018-06-19T21:54:43.645Z,90.10
2018-06-19T21:57:11.853Z,90.00
2018-06-19T21:59:40.006Z,90.10
2018-06-19T22:02:08.267Z,90.20
2018-06-19T22:04:36.623Z,90.20
2018-06-19T22:07:04.825Z,90.20
2018-06-19T22:09:33.047Z,90.30
2018-06-19T22:12:01.238Z,90.30
2018-06-19T22:14:29.455Z,90.40
2018-06-19T22:16:57.769Z,90.40
2018-06-19T22:19:26.026Z,90.50
2018-06-19T22:21:54.257Z,90.50
2018-06-19T22:24:22.441Z,90.50
2018-06-19T22:26:50.816Z,90.60
2018-06-19T22:29:19.066Z,90.60
2018-06-19T22:31:47.268Z,91.00
2018-06-19T22:34:15.481Z,91.10
2018-06-19T22:36:45.722Z,90.80
2018-06-19T22:39:14.075Z,90.80
2018-06-19T22:41:42.273Z,90.80
2018-06-19T22:44:10.544Z,90.80
2018-06-19T22:46:38.922Z,90.90
2018-06-19T22:49:07.162Z,90.90
2018-06-19T22:51:35.369Z,90.90
2018-06-19T22:54:03.829Z,91.00
2018-06-19T22:56:32.087Z,91.10
2018-06-19T22:59:00.332Z,91.10
2018-06-19T23:01:28.599Z,91.10
2018-06-19T23:03:56.820Z,91.40
2018-06-19T23:06:25.290Z,91.50
2018-06-19T23:08:53.505Z,91.20
2018-06-19T23:11:21.719Z,91.30
2018-06-19T23:13:49.892Z,91.30
2018-06-19T23:16:18.160Z,91.40
2018-06-19T23:18:46.336Z,91.40
2018-06-19T23:21:14.480Z,91.40
2018-06-19T23:23:42.658Z,91.40
2018-06-19T23:26:11.056Z,91.40
2018-06-19T23:28:39.324Z,91.40
2018-06-19T23:31:07.491Z,91.40
2018-06-19T23:33:35.775Z,91.30
2018-06-19T23:36:04.260Z,91.30
2018-06-19T23:41:00.405Z,91.40
2018-06-19T23:43:28.587Z,91.30
2018-06-19T23:45:57.866Z,91.30
2018-06-19T23:48:26.151Z,91.30
2018-06-19T23:50:54.326Z,91.40
2018-06-19T23:53:22.553Z,91.40
2018-06-19T23:55:50.968Z,91.50
2018-06-19T23:58:19.212Z,91.50
